O'Brien, Oregon
Current Conditions -  °F | °C
As of 11:22 AM on Thursday 30 Oct 2014 (Local Time) from KBOK Reporting Station
Moderate Fog Moderate Fog  
Wind Chill: 16°   Ceiling: 100
Heat Index: 16°   Visibility: 0mi
Dew Point: 16°   Wind: 8mph
Humidity: 100%   Direction: 180°S
Pressure: 29.92"   Gusts: NA
Location:  42.07°N, 123.71°W
Report Text: KBOK 301822Z AUTO 18007KT 140V200 M1/4SM FG OVC001 16/16 A2992 RMK AO2 RAB07E19 P0001
Loading
Personal Weather Stations






























Interactive Weather Map
Tropical Storm Tracking
New forecast layout! Learn more

10-Day Weather Forecast

Advertisements
Track Severe Weather on mobile